Time;durP1;ratioP1;P1;durP2;ratioP2;P2;SDS_P1;SDS_P2;PMS_P1;PMS_P2;Temp;Humidity;BMP_temperature;BMP_pressure;BME280_temperature;BME280_humidity;BME280_pressure;Samples;Min_cycle;Max_cycle;Signal;HPM_P1;HPM_P2
2021/12/25 00:00:10;;;;;;;74.90;19.48;;;;;;;;;;4999725;28;20113;-84
2021/12/25 00:02:37;;;;;;;204.68;21.70;;;;;;;;;;4998832;28;20057;-84
2021/12/25 00:05:04;;;;;;;109.13;20.52;;;;;;;;;;4999296;28;20505;-84
2021/12/25 00:07:30;;;;;;;226.38;22.52;;;;;;;;;;4999048;28;20105;-85
2021/12/25 00:09:57;;;;;;;124.90;21.15;;;;;;;;;;4997751;28;20074;-84
2021/12/25 00:12:24;;;;;;;69.57;19.23;;;;;;;;;;4997228;28;20022;-84
2021/12/25 00:14:50;;;;;;;80.57;19.27;;;;;;;;;;4997561;28;20031;-84
2021/12/25 00:17:16;;;;;;;61.42;18.73;;;;;;;;;;4998271;28;20101;-84
2021/12/25 00:19:43;;;;;;;49.85;19.00;;;;;;;;;;4996194;28;20050;-84
2021/12/25 00:22:09;;;;;;;61.88;18.45;;;;;;;;;;4996410;28;20058;-85
2021/12/25 00:24:35;;;;;;;51.35;19.02;;;;;;;;;;4996696;28;20038;-85
2021/12/25 00:27:20;;;;;;;55.97;20.33;;;;;;;;;;4997311;28;20018;-85
2021/12/25 00:32:30;;;;;;;44.08;18.30;;;;;;;;;;5002530;28;20053;-84
2021/12/25 00:34:56;;;;;;;39.83;18.63;;;;;;;;;;4998624;28;20030;-84
2021/12/25 00:37:22;;;;;;;44.10;19.15;;;;;;;;;;4999604;28;20076;-84
2021/12/25 00:39:48;;;;;;;44.58;20.17;;;;;;;;;;5001425;28;20038;-84
2021/12/25 00:42:15;;;;;;;47.47;19.77;;;;;;;;;;5000832;28;20030;-85
2021/12/25 00:44:42;;;;;;;45.00;19.85;;;;;;;;;;5003473;28;20053;-85
2021/12/25 00:47:09;;;;;;;44.50;19.33;;;;;;;;;;5003180;28;20050;-85
2021/12/25 00:49:35;;;;;;;39.10;19.25;;;;;;;;;;5001306;28;20049;-85
2021/12/25 00:52:01;;;;;;;37.83;17.85;;;;;;;;;;5000138;28;20075;-85
2021/12/25 00:54:27;;;;;;;44.50;18.85;;;;;;;;;;4999857;28;20041;-85
2021/12/25 00:56:53;;;;;;;39.38;19.10;;;;;;;;;;4999261;28;20022;-84
2021/12/25 00:59:19;;;;;;;40.13;19.20;;;;;;;;;;4998785;28;20026;-85
2021/12/25 01:01:45;;;;;;;43.75;21.27;;;;;;;;;;4997825;28;20030;-84
2021/12/25 01:04:11;;;;;;;51.03;21.52;;;;;;;;;;4999304;28;20034;-84
2021/12/25 01:06:37;;;;;;;43.42;21.25;;;;;;;;;;4998377;28;20025;-84
2021/12/25 01:09:04;;;;;;;42.75;19.77;;;;;;;;;;4997522;28;20433;-84
2021/12/25 01:11:31;;;;;;;54.90;22.92;;;;;;;;;;4998222;28;20022;-85
2021/12/25 01:15:00;;;;;;;46.28;21.25;;;;;;;;;;4998322;28;20018;-84
2021/12/25 01:17:13;;;;;;;53.42;21.70;;;;;;;;;;4981610;28;20491;-85
2021/12/25 01:20:56;;;;;;;57.05;24.25;;;;;;;;;;4978699;28;20038;-84
2021/12/25 01:25:22;;;;;;;55.22;23.30;;;;;;;;;;4978824;28;20110;-85
2021/12/25 01:30:35;;;;;;;58.08;22.73;;;;;;;;;;4977202;28;20023;-85
2021/12/25 01:41:10;;;;;;;42.58;18.80;;;;;;;;;;4980546;28;20494;-84
2021/12/25 01:49:07;;;;;;;32.50;15.70;;;;;;;;;;4970209;28;20035;-84
2021/12/25 01:51:33;;;;;;;46.05;18.20;;;;;;;;;;4980710;28;20029;-85
2021/12/25 01:54:00;;;;;;;38.38;16.42;;;;;;;;;;4978623;28;20030;-85
2021/12/25 01:56:26;;;;;;;34.65;15.98;;;;;;;;;;4979290;28;20023;-85
2021/12/25 01:58:52;;;;;;;36.53;15.80;;;;;;;;;;4979384;28;20490;-85
2021/12/25 02:01:18;;;;;;;33.78;15.82;;;;;;;;;;4980386;28;20023;-85
2021/12/25 02:03:44;;;;;;;33.60;15.05;;;;;;;;;;4999862;28;20046;-84
2021/12/25 02:06:12;;;;;;;27.73;13.32;;;;;;;;;;4997705;28;20109;-84
2021/12/25 02:08:39;;;;;;;29.98;13.77;;;;;;;;;;4999374;28;20033;-83
2021/12/25 02:11:06;;;;;;;25.30;13.02;;;;;;;;;;4999907;28;20110;-84
2021/12/25 02:13:32;;;;;;;24.38;11.63;;;;;;;;;;4999922;28;20426;-83
2021/12/25 02:16:00;;;;;;;25.35;12.32;;;;;;;;;;5016724;28;20021;-86
2021/12/25 02:21:03;;;;;;;20.67;10.73;;;;;;;;;;5020761;28;20065;-86
2021/12/25 02:23:30;;;;;;;19.70;10.10;;;;;;;;;;4999164;28;20026;-84
2021/12/25 02:25:57;;;;;;;19.63;9.48;;;;;;;;;;4996316;28;20038;-84
2021/12/25 02:28:25;;;;;;;20.80;9.63;;;;;;;;;;4996778;28;20027;-85
2021/12/25 02:30:52;;;;;;;19.52;10.38;;;;;;;;;;4995402;28;20027;-85
2021/12/25 02:33:18;;;;;;;17.48;9.60;;;;;;;;;;4996525;28;20041;-84
2021/12/25 02:35:45;;;;;;;21.10;10.23;;;;;;;;;;4996440;28;20030;-85
2021/12/25 02:38:12;;;;;;;18.65;8.82;;;;;;;;;;4995433;28;20478;-86
2021/12/25 02:40:38;;;;;;;16.08;8.60;;;;;;;;;;4995640;28;20026;-84
2021/12/25 02:43:04;;;;;;;15.75;8.38;;;;;;;;;;4996514;28;20022;-85
2021/12/25 02:45:30;;;;;;;13.23;8.10;;;;;;;;;;4996395;28;20041;-84
2021/12/25 02:47:57;;;;;;;13.77;8.15;;;;;;;;;;4996458;28;20489;-85
2021/12/25 02:50:23;;;;;;;14.15;8.18;;;;;;;;;;4995977;28;20046;-85
2021/12/25 02:52:49;;;;;;;13.38;7.90;;;;;;;;;;4995221;28;20525;-84
2021/12/25 02:55:15;;;;;;;13.48;7.75;;;;;;;;;;4996144;28;20034;-85
2021/12/25 02:57:41;;;;;;;11.52;7.10;;;;;;;;;;4995967;28;20102;-85
2021/12/25 03:00:08;;;;;;;12.77;7.25;;;;;;;;;;4995942;28;20030;-84
2021/12/25 03:02:34;;;;;;;10.55;7.05;;;;;;;;;;4995682;28;20494;-86
2021/12/25 03:05:01;;;;;;;10.43;7.28;;;;;;;;;;4996855;28;20471;-84
2021/12/25 03:07:27;;;;;;;14.52;7.18;;;;;;;;;;4995962;28;20065;-85
2021/12/25 03:09:53;;;;;;;14.13;7.03;;;;;;;;;;4994695;28;20072;-85
2021/12/25 03:12:29;;;;;;;14.98;7.90;;;;;;;;;;4996040;28;20477;-83
2021/12/25 03:17:27;;;;;;;14.40;7.75;;;;;;;;;;4996136;28;20165;-85
2021/12/25 03:19:55;;;;;;;13.23;8.15;;;;;;;;;;4996421;28;20062;-85
2021/12/25 03:22:21;;;;;;;10.60;7.15;;;;;;;;;;4996485;28;20030;-85
2021/12/25 03:24:47;;;;;;;12.52;7.40;;;;;;;;;;4996056;28;20037;-84
2021/12/25 03:27:13;;;;;;;13.13;6.65;;;;;;;;;;4995558;28;20409;-85
2021/12/25 03:29:41;;;;;;;11.02;6.78;;;;;;;;;;4996176;28;20026;-85
2021/12/25 03:32:08;;;;;;;12.23;6.90;;;;;;;;;;4995717;28;20022;-85
2021/12/25 03:34:34;;;;;;;12.15;6.15;;;;;;;;;;4995777;28;20026;-85
2021/12/25 03:37:00;;;;;;;11.00;6.65;;;;;;;;;;4996470;28;20104;-84
2021/12/25 03:39:26;;;;;;;10.93;6.60;;;;;;;;;;4995819;28;20559;-85
2021/12/25 03:41:52;;;;;;;11.93;5.57;;;;;;;;;;4998254;28;20030;-84
2021/12/25 03:44:20;;;;;;;20.75;7.00;;;;;;;;;;4998609;28;20402;-86
2021/12/25 03:46:46;;;;;;;11.35;6.57;;;;;;;;;;5016800;28;20030;-85
2021/12/25 03:53:04;;;;;;;20.20;7.25;;;;;;;;;;5016695;28;20027;-85
2021/12/25 03:57:51;;;;;;;11.10;6.68;;;;;;;;;;5001698;28;20517;-85
2021/12/25 04:00:26;;;;;;;15.85;8.40;;;;;;;;;;5000010;28;20022;-85
2021/12/25 04:02:56;;;;;;;13.07;7.25;;;;;;;;;;5004629;28;20030;-84
2021/12/25 04:05:28;;;;;;;15.07;7.72;;;;;;;;;;5004658;28;20026;-84
2021/12/25 04:10:20;;;;;;;18.05;9.30;;;;;;;;;;5013586;28;20049;-85
2021/12/25 04:12:46;;;;;;;19.98;10.07;;;;;;;;;;5013389;28;20030;-85
2021/12/25 04:15:12;;;;;;;22.75;10.93;;;;;;;;;;5013489;28;20122;-84
2021/12/25 04:17:38;;;;;;;26.63;11.35;;;;;;;;;;5013414;28;20036;-84
2021/12/25 04:20:04;;;;;;;22.77;11.27;;;;;;;;;;5013195;28;20094;-85
2021/12/25 04:22:41;;;;;;;25.63;12.95;;;;;;;;;;5009167;28;20023;-85
2021/12/25 04:25:07;;;;;;;28.60;13.60;;;;;;;;;;5012296;28;20031;-86
2021/12/25 04:27:34;;;;;;;28.20;13.18;;;;;;;;;;5013460;28;20038;-85
2021/12/25 04:30:05;;;;;;;26.40;13.23;;;;;;;;;;5013707;28;20024;-85
2021/12/25 05:03:53;;;;;;;19.60;10.38;;;;;;;;;;5013095;28;20057;-85
2021/12/25 05:06:22;;;;;;;20.85;10.45;;;;;;;;;;5013320;28;20037;-88
2021/12/25 05:08:48;;;;;;;19.20;8.85;;;;;;;;;;5014045;28;20031;-88
2021/12/25 05:11:14;;;;;;;17.92;9.30;;;;;;;;;;5013750;28;20072;-88
2021/12/25 05:13:42;;;;;;;18.92;9.73;;;;;;;;;;5011005;28;20029;-88
2021/12/25 05:16:08;;;;;;;17.05;9.40;;;;;;;;;;5016451;28;20462;-87
2021/12/25 05:18:34;;;;;;;18.02;9.68;;;;;;;;;;5015695;28;20082;-87
2021/12/25 05:21:00;;;;;;;18.10;9.40;;;;;;;;;;5016228;28;20030;-88
2021/12/25 05:23:26;;;;;;;15.82;8.98;;;;;;;;;;5014526;28;20026;-87
2021/12/25 05:25:52;;;;;;;17.27;9.32;;;;;;;;;;5015856;28;20058;-86
2021/12/25 05:28:24;;;;;;;18.08;8.95;;;;;;;;;;5014900;28;20026;-85
2021/12/25 05:30:51;;;;;;;17.05;9.43;;;;;;;;;;5016821;28;20026;-88
2021/12/25 05:33:17;;;;;;;18.90;9.80;;;;;;;;;;5017907;28;20061;-87
2021/12/25 05:35:44;;;;;;;20.42;10.68;;;;;;;;;;5017162;28;20030;-88
2021/12/25 05:38:14;;;;;;;20.25;10.25;;;;;;;;;;5017505;28;20052;-87
2021/12/25 05:40:41;;;;;;;22.30;10.87;;;;;;;;;;5017700;28;20014;-87
2021/12/25 05:43:06;;;;;;;22.83;11.10;;;;;;;;;;5006330;28;20034;-87
2021/12/25 05:45:33;;;;;;;19.00;10.30;;;;;;;;;;4995882;28;20449;-86
2021/12/25 05:47:59;;;;;;;20.63;12.07;;;;;;;;;;4996423;28;20474;-87
2021/12/25 05:50:25;;;;;;;27.60;11.73;;;;;;;;;;4995677;28;20097;-86
2021/12/25 05:52:51;;;;;;;21.27;11.23;;;;;;;;;;4997406;28;20026;-87
2021/12/25 05:55:17;;;;;;;20.80;12.50;;;;;;;;;;4996140;28;20061;-86
2021/12/25 05:57:44;;;;;;;20.52;10.48;;;;;;;;;;4996382;28;20033;-87
2021/12/25 06:00:10;;;;;;;20.63;10.30;;;;;;;;;;4995956;28;20497;-86
2021/12/25 06:02:36;;;;;;;20.90;10.77;;;;;;;;;;4997224;28;20379;-86
2021/12/25 06:05:04;;;;;;;21.85;11.55;;;;;;;;;;4996666;28;20093;-86
2021/12/25 06:07:30;;;;;;;20.00;10.73;;;;;;;;;;4997255;28;20471;-86
2021/12/25 06:09:56;;;;;;;19.98;11.40;;;;;;;;;;4996883;28;20500;-86
2021/12/25 06:12:23;;;;;;;19.67;11.20;;;;;;;;;;4996797;28;20022;-86
2021/12/25 06:14:51;;;;;;;23.98;12.85;;;;;;;;;;4995754;28;20107;-86
2021/12/25 06:17:17;;;;;;;24.10;12.13;;;;;;;;;;4995081;28;20124;-86
2021/12/25 06:19:43;;;;;;;25.05;12.35;;;;;;;;;;4996191;28;20082;-86
2021/12/25 06:22:09;;;;;;;21.13;11.88;;;;;;;;;;4995843;28;20470;-87
2021/12/25 06:24:36;;;;;;;25.83;13.90;;;;;;;;;;4994662;28;20030;-86
2021/12/25 06:27:02;;;;;;;22.75;12.70;;;;;;;;;;5001456;28;20026;-86
2021/12/25 06:29:28;;;;;;;23.95;12.98;;;;;;;;;;5004702;28;20465;-87
2021/12/25 06:31:54;;;;;;;25.83;14.07;;;;;;;;;;4996128;28;20010;-86
2021/12/25 06:34:20;;;;;;;28.95;15.20;;;;;;;;;;5006596;28;20031;-87
2021/12/25 06:36:46;;;;;;;24.15;13.65;;;;;;;;;;4996170;28;20027;-86
2021/12/25 06:39:14;;;;;;;31.10;14.80;;;;;;;;;;4994426;28;20062;-87
2021/12/25 06:41:41;;;;;;;25.08;14.23;;;;;;;;;;4994206;28;20383;-86
2021/12/25 06:44:07;;;;;;;29.73;15.05;;;;;;;;;;4994260;28;20034;-86
2021/12/25 06:46:33;;;;;;;30.08;14.43;;;;;;;;;;4995145;28;20439;-86
2021/12/25 06:48:59;;;;;;;28.33;13.98;;;;;;;;;;4994443;28;20118;-86
2021/12/25 06:51:25;;;;;;;30.98;15.93;;;;;;;;;;4995244;28;20022;-86
2021/12/25 06:53:51;;;;;;;30.55;14.65;;;;;;;;;;4994028;28;20057;-87
2021/12/25 06:56:18;;;;;;;26.10;14.23;;;;;;;;;;4995409;28;20022;-86
2021/12/25 06:58:44;;;;;;;28.75;14.93;;;;;;;;;;4995386;28;20103;-86
2021/12/25 07:01:10;;;;;;;26.92;14.48;;;;;;;;;;4995213;28;20050;-86
2021/12/25 07:03:36;;;;;;;28.98;15.15;;;;;;;;;;4993719;28;20058;-85
2021/12/25 07:06:02;;;;;;;28.75;15.35;;;;;;;;;;4994961;28;20022;-86
2021/12/25 07:08:28;;;;;;;26.92;13.52;;;;;;;;;;4993835;28;20034;-87
2021/12/25 07:10:54;;;;;;;27.55;14.93;;;;;;;;;;4994981;28;20109;-86
2021/12/25 07:13:20;;;;;;;25.77;14.40;;;;;;;;;;4993494;28;20109;-86
2021/12/25 07:15:47;;;;;;;29.77;14.18;;;;;;;;;;4995231;28;20033;-86
2021/12/25 07:18:13;;;;;;;25.42;14.10;;;;;;;;;;4994671;28;20030;-86
2021/12/25 07:20:39;;;;;;;28.30;14.05;;;;;;;;;;4995182;28;20042;-85
2021/12/25 07:23:05;;;;;;;26.70;14.70;;;;;;;;;;4995355;28;20033;-85
2021/12/25 07:25:31;;;;;;;25.45;13.77;;;;;;;;;;4999010;28;20050;-84
2021/12/25 07:27:58;;;;;;;29.63;14.15;;;;;;;;;;5019413;28;20065;-87
2021/12/25 07:30:24;;;;;;;26.83;14.38;;;;;;;;;;5019520;28;20030;-87
2021/12/25 07:32:50;;;;;;;27.98;14.73;;;;;;;;;;5019577;28;20042;-86
2021/12/25 07:35:16;;;;;;;27.83;15.07;;;;;;;;;;5004075;28;20068;-87
2021/12/25 07:37:42;;;;;;;30.90;15.45;;;;;;;;;;4994146;28;20105;-87
2021/12/25 07:40:09;;;;;;;27.27;15.23;;;;;;;;;;4994180;28;20021;-87
2021/12/25 07:42:35;;;;;;;28.08;16.42;;;;;;;;;;4994165;28;20371;-88
2021/12/25 07:45:06;;;;;;;27.95;15.05;;;;;;;;;;4993720;28;20027;-87
2021/12/25 07:47:35;;;;;;;27.30;14.65;;;;;;;;;;4993746;28;20038;-87
2021/12/25 07:50:01;;;;;;;28.80;15.80;;;;;;;;;;4993955;28;20034;-85
2021/12/25 07:52:27;;;;;;;28.48;16.15;;;;;;;;;;4998818;28;20038;-86
2021/12/25 07:54:53;;;;;;;27.92;14.68;;;;;;;;;;4996523;28;20376;-86
2021/12/25 07:57:20;;;;;;;30.73;15.55;;;;;;;;;;4994096;28;20026;-86
2021/12/25 07:59:46;;;;;;;25.40;15.15;;;;;;;;;;5003128;28;20041;-87
2021/12/25 08:02:12;;;;;;;28.42;14.80;;;;;;;;;;5018628;28;20022;-87
2021/12/25 08:04:38;;;;;;;27.27;14.25;;;;;;;;;;5013286;28;20054;-87
2021/12/25 08:07:04;;;;;;;25.67;14.07;;;;;;;;;;4995059;28;20034;-87
2021/12/25 08:09:31;;;;;;;25.23;12.93;;;;;;;;;;4994588;28;20149;-87
2021/12/25 08:11:58;;;;;;;23.17;13.48;;;;;;;;;;4995907;28;20038;-86
2021/12/25 08:14:25;;;;;;;24.85;13.77;;;;;;;;;;4994981;28;20410;-86
2021/12/25 08:16:55;;;;;;;26.00;12.93;;;;;;;;;;4994549;28;20077;-86
2021/12/25 08:19:22;;;;;;;22.92;13.05;;;;;;;;;;4994862;28;20486;-86
2021/12/25 08:21:48;;;;;;;21.88;13.10;;;;;;;;;;4992943;28;20096;-86
2021/12/25 08:24:14;;;;;;;28.25;14.32;;;;;;;;;;4992824;28;20030;-86
2021/12/25 08:26:40;;;;;;;22.98;13.25;;;;;;;;;;4994471;28;20022;-86
2021/12/25 08:29:06;;;;;;;23.35;12.63;;;;;;;;;;4993291;28;20053;-85
2021/12/25 08:31:32;;;;;;;26.25;12.75;;;;;;;;;;4993637;28;20022;-86
2021/12/25 08:33:58;;;;;;;26.80;13.05;;;;;;;;;;4993088;28;20058;-86
2021/12/25 08:36:24;;;;;;;26.02;14.10;;;;;;;;;;4993054;28;20030;-86
2021/12/25 08:38:50;;;;;;;24.48;13.48;;;;;;;;;;4992927;28;20037;-85
2021/12/25 08:41:17;;;;;;;29.15;13.77;;;;;;;;;;4992571;28;20026;-86
2021/12/25 08:43:48;;;;;;;30.73;14.52;;;;;;;;;;4992350;28;20022;-87
2021/12/25 08:46:25;;;;;;;24.02;14.50;;;;;;;;;;4993318;28;20026;-86
2021/12/25 08:48:52;;;;;;;27.27;14.38;;;;;;;;;;4992707;28;20042;-86
2021/12/25 08:51:20;;;;;;;28.15;14.65;;;;;;;;;;4991578;28;20027;-87
2021/12/25 08:53:46;;;;;;;23.45;13.27;;;;;;;;;;4991798;28;20018;-88
2021/12/25 08:56:15;;;;;;;23.95;14.02;;;;;;;;;;4991408;28;20046;-88
2021/12/25 09:07:39;;;;;;;23.25;14.25;;;;;;;;;;4974658;28;20089;-87
2021/12/25 09:10:05;;;;;;;24.88;13.77;;;;;;;;;;4973654;28;20504;-87
2021/12/25 09:12:50;;;;;;;29.52;14.95;;;;;;;;;;4973774;28;20372;-87
2021/12/25 09:15:53;;;;;;;28.70;15.27;;;;;;;;;;4987464;28;20026;-86
2021/12/25 09:19:07;;;;;;;32.47;15.05;;;;;;;;;;4993252;28;20379;-86
2021/12/25 09:27:12;;;;;;;32.22;17.40;;;;;;;;;;5298388;23;20055;-87
2021/12/25 09:29:38;;;;;;;34.42;17.25;;;;;;;;;;5006509;28;20015;-87
2021/12/25 09:32:07;;;;;;;33.95;17.67;;;;;;;;;;5014257;28;20037;-87
2021/12/25 09:41:03;;;;;;;36.80;16.75;;;;;;;;;;4951347;29;20034;-86
2021/12/25 09:43:34;;;;;;;30.52;15.63;;;;;;;;;;5012302;22;20022;-85
2021/12/25 09:46:39;;;;;;;26.85;15.18;;;;;;;;;;4971754;28;20134;-85
2021/12/25 09:49:41;;;;;;;34.63;15.73;;;;;;;;;;4913536;29;20119;-87
2021/12/25 09:52:55;;;;;;;28.75;15.88;;;;;;;;;;4922305;29;20115;-88
2021/12/25 10:04:12;;;;;;;26.98;14.63;;;;;;;;;;4996476;28;20089;-87
2021/12/25 10:06:44;;;;;;;26.85;15.20;;;;;;;;;;4978996;28;20034;-87
2021/12/25 10:12:40;;;;;;;25.05;13.77;;;;;;;;;;4920975;29;20055;-87
2021/12/25 10:15:08;;;;;;;29.35;14.30;;;;;;;;;;4920918;29;20420;-86
2021/12/25 10:17:48;;;;;;;25.88;13.48;;;;;;;;;;4921993;29;20040;-86
2021/12/25 10:23:58;;;;;;;24.30;13.52;;;;;;;;;;4898121;29;20045;-86
2021/12/25 10:26:24;;;;;;;29.40;14.07;;;;;;;;;;4897481;29;20032;-86
2021/12/25 10:29:17;;;;;;;27.30;14.85;;;;;;;;;;4909101;29;20401;-86
2021/12/25 10:31:43;;;;;;;26.33;13.90;;;;;;;;;;4909743;29;20064;-87
2021/12/25 10:34:13;;;;;;;27.05;15.15;;;;;;;;;;4916838;29;20036;-86
2021/12/25 10:36:39;;;;;;;27.75;14.90;;;;;;;;;;4949356;28;20050;-86
2021/12/25 10:39:05;;;;;;;26.35;14.55;;;;;;;;;;4977278;28;20077;-86
2021/12/25 10:41:35;;;;;;;24.05;14.65;;;;;;;;;;4981140;28;20023;-87
2021/12/25 10:44:12;;;;;;;26.10;14.75;;;;;;;;;;4967411;28;20022;-86
2021/12/25 10:46:53;;;;;;;26.60;15.35;;;;;;;;;;4982022;28;20599;-86
2021/12/25 10:49:19;;;;;;;25.77;14.10;;;;;;;;;;4978601;28;20022;-86
2021/12/25 10:51:46;;;;;;;27.17;14.90;;;;;;;;;;4977988;28;20049;-88
2021/12/25 10:54:42;;;;;;;39.03;15.93;;;;;;;;;;4978147;28;20130;-87
2021/12/25 11:00:13;;;;;;;25.65;14.77;;;;;;;;;;4979835;28;20083;-87
2021/12/25 11:03:15;;;;;;;26.33;14.57;;;;;;;;;;4999650;28;20038;-87
2021/12/25 11:06:13;;;;;;;31.00;16.73;;;;;;;;;;5000685;28;20029;-87
2021/12/25 11:12:06;;;;;;;24.38;14.18;;;;;;;;;;4916604;29;20095;-85
2021/12/25 11:14:32;;;;;;;23.58;13.32;;;;;;;;;;4993229;28;20033;-86
2021/12/25 11:17:21;;;;;;;23.77;12.45;;;;;;;;;;4976485;28;20039;-85
2021/12/25 11:19:56;;;;;;;22.38;12.10;;;;;;;;;;4962342;28;20022;-86
2021/12/25 11:28:32;;;;;;;19.55;11.63;;;;;;;;;;4977572;28;20089;-85
2021/12/25 11:30:57;;;;;;;24.13;12.90;;;;;;;;;;4975734;28;20031;-85
2021/12/25 11:33:23;;;;;;;23.27;12.70;;;;;;;;;;4958232;28;20093;-85
2021/12/25 11:35:49;;;;;;;23.52;13.35;;;;;;;;;;4958182;28;20034;-84
2021/12/25 11:38:16;;;;;;;27.02;13.38;;;;;;;;;;4959321;28;20077;-86
2021/12/25 11:40:49;;;;;;;22.33;12.68;;;;;;;;;;4979737;28;20154;-85
2021/12/25 11:43:15;;;;;;;25.85;13.38;;;;;;;;;;4980147;28;20019;-86
2021/12/25 11:45:42;;;;;;;24.48;13.48;;;;;;;;;;4961987;28;20131;-86
2021/12/25 11:48:13;;;;;;;26.55;13.68;;;;;;;;;;4979417;28;20055;-86
2021/12/25 11:50:41;;;;;;;;;;;;;;;;;;4979798;28;20049;-86
2021/12/25 11:53:18;;;;;;;23.23;12.93;;;;;;;;;;4961612;28;19956;-87
2021/12/25 11:58:39;;;;;;;22.27;12.55;;;;;;;;;;4975700;28;20061;-86
2021/12/25 12:01:19;;;;;;;22.17;12.15;;;;;;;;;;4988443;28;20018;-86
2021/12/25 12:03:46;;;;;;;23.92;12.90;;;;;;;;;;4998427;28;20029;-86
2021/12/25 12:06:13;;;;;;;26.25;12.70;;;;;;;;;;4978668;28;20049;-85
2021/12/25 12:08:55;;;;;;;25.92;12.20;;;;;;;;;;4994695;28;20022;-85
2021/12/25 12:11:22;;;;;;;23.55;12.13;;;;;;;;;;4977222;28;20053;-85
2021/12/25 12:13:48;;;;;;;17.52;10.63;;;;;;;;;;5013561;28;20030;-86
2021/12/25 12:16:14;;;;;;;19.98;10.43;;;;;;;;;;5000652;28;20018;-84
2021/12/25 12:18:41;;;;;;;20.77;10.82;;;;;;;;;;5003177;28;20109;-85
2021/12/25 12:21:16;;;;;;;21.67;10.55;;;;;;;;;;4995475;28;20062;-85
2021/12/25 12:26:37;;;;;;;17.17;9.98;;;;;;;;;;4995809;28;20023;-86
2021/12/25 12:29:03;;;;;;;21.95;10.82;;;;;;;;;;4980451;28;20121;-86
2021/12/25 12:31:41;;;;;;;17.45;10.05;;;;;;;;;;4986475;28;20034;-84
2021/12/25 12:34:47;;;;;;;19.75;9.43;;;;;;;;;;5005332;28;20022;-85
2021/12/25 12:37:16;;;;;;;16.65;9.30;;;;;;;;;;4949168;28;20043;-84
2021/12/25 12:40:05;;;;;;;16.52;9.23;;;;;;;;;;4959728;28;20122;-85
2021/12/25 12:42:48;;;;;;;15.57;9.52;;;;;;;;;;4981930;28;20089;-87
2021/12/25 12:45:14;;;;;;;15.15;8.85;;;;;;;;;;5003273;28;20033;-85
2021/12/25 12:47:40;;;;;;;15.77;9.80;;;;;;;;;;4995526;28;20026;-85
2021/12/25 12:50:08;;;;;;;21.15;10.65;;;;;;;;;;4976785;28;20094;-85
2021/12/25 12:52:37;;;;;;;16.17;10.10;;;;;;;;;;4993167;28;20027;-85
2021/12/25 12:55:09;;;;;;;20.58;9.73;;;;;;;;;;4995212;28;20030;-87
2021/12/25 12:57:35;;;;;;;14.73;8.63;;;;;;;;;;4997604;28;20394;-85
2021/12/25 13:00:12;;;;;;;15.80;9.52;;;;;;;;;;4997417;28;20027;-85
2021/12/25 13:02:40;;;;;;;15.18;9.10;;;;;;;;;;4979982;28;20033;-87
2021/12/25 13:05:06;;;;;;;12.63;8.73;;;;;;;;;;5007384;28;20027;-83
2021/12/25 13:07:34;;;;;;;15.05;8.95;;;;;;;;;;5013116;28;20074;-86
2021/12/25 13:10:05;;;;;;;12.90;8.30;;;;;;;;;;4995479;28;20023;-84
2021/12/25 13:13:05;;;;;;;12.27;8.60;;;;;;;;;;4972950;28;20018;-85
2021/12/25 13:15:32;;;;;;;15.30;8.82;;;;;;;;;;4989190;28;20026;-85
2021/12/25 13:18:00;;;;;;;13.75;9.00;;;;;;;;;;4969688;28;20050;-86
2021/12/25 13:20:33;;;;;;;11.90;7.60;;;;;;;;;;4993366;28;20053;-85
2021/12/25 13:23:00;;;;;;;16.58;9.10;;;;;;;;;;5011467;28;20018;-84
2021/12/25 13:25:26;;;;;;;12.52;8.25;;;;;;;;;;5001293;28;20021;-85
2021/12/25 13:27:57;;;;;;;13.45;8.18;;;;;;;;;;5017801;28;20018;-86
2021/12/25 13:30:23;;;;;;;11.48;7.65;;;;;;;;;;4977692;28;20477;-84
2021/12/25 13:32:50;;;;;;;12.70;8.73;;;;;;;;;;4993351;28;20022;-85
2021/12/25 13:35:17;;;;;;;12.23;8.25;;;;;;;;;;4979146;28;20027;-85
2021/12/25 13:37:43;;;;;;;14.07;8.38;;;;;;;;;;4996474;28;20033;-85
2021/12/25 13:40:10;;;;;;;13.30;8.20;;;;;;;;;;4981051;28;20094;-86
2021/12/25 13:42:36;;;;;;;13.20;7.82;;;;;;;;;;4983058;28;20026;-85
2021/12/25 13:45:02;;;;;;;10.68;7.40;;;;;;;;;;5001031;28;20029;-86
2021/12/25 13:47:28;;;;;;;13.50;7.57;;;;;;;;;;4983167;28;20129;-87
2021/12/25 13:49:55;;;;;;;10.82;7.32;;;;;;;;;;5000948;28;20086;-87
2021/12/25 13:52:21;;;;;;;10.73;7.43;;;;;;;;;;4997620;28;20113;-86
2021/12/25 13:55:02;;;;;;;13.32;7.82;;;;;;;;;;4978606;28;20141;-86
2021/12/25 13:57:29;;;;;;;20.02;8.15;;;;;;;;;;4996212;28;20098;-85
2021/12/25 13:59:57;;;;;;;14.80;7.55;;;;;;;;;;4978803;28;20662;-85
2021/12/25 14:02:24;;;;;;;12.70;7.43;;;;;;;;;;4979032;28;20035;-86
2021/12/25 14:04:54;;;;;;;12.50;7.70;;;;;;;;;;4996712;28;20027;-86
2021/12/25 14:07:26;;;;;;;13.30;7.53;;;;;;;;;;4998763;28;20022;-86
2021/12/25 14:10:00;;;;;;;10.88;7.55;;;;;;;;;;5000435;28;20030;-87
2021/12/25 14:12:27;;;;;;;10.63;7.78;;;;;;;;;;4983308;28;20098;-87
2021/12/25 14:14:53;;;;;;;13.05;7.60;;;;;;;;;;4999881;28;20114;-86
2021/12/25 14:17:19;;;;;;;10.90;7.25;;;;;;;;;;4992316;28;20034;-86
2021/12/25 14:19:45;;;;;;;13.02;7.60;;;;;;;;;;5000445;28;20508;-87
2021/12/25 14:22:11;;;;;;;13.77;7.53;;;;;;;;;;4981900;28;20026;-85
2021/12/25 14:24:50;;;;;;;14.85;7.63;;;;;;;;;;4997412;28;20026;-85
2021/12/25 14:27:21;;;;;;;10.38;6.63;;;;;;;;;;4998508;28;20037;-84
2021/12/25 14:29:49;;;;;;;12.98;7.50;;;;;;;;;;4979657;28;20394;-86
2021/12/25 14:32:34;;;;;;;18.70;8.25;;;;;;;;;;4980487;28;20057;-85
2021/12/25 14:35:01;;;;;;;12.00;6.72;;;;;;;;;;4996204;28;20030;-85
2021/12/25 14:37:31;;;;;;;12.70;7.18;;;;;;;;;;4996872;28;20026;-86
2021/12/25 14:40:06;;;;;;;11.10;7.50;;;;;;;;;;5000125;28;20022;-88
2021/12/25 14:42:33;;;;;;;12.02;7.53;;;;;;;;;;4982499;28;20022;-85
2021/12/25 14:44:59;;;;;;;14.50;7.57;;;;;;;;;;4997018;28;20037;-88
2021/12/25 14:47:25;;;;;;;12.00;8.35;;;;;;;;;;4979673;28;20080;-86
2021/12/25 14:49:52;;;;;;;14.27;7.80;;;;;;;;;;4978896;28;20401;-86
2021/12/25 14:52:19;;;;;;;15.52;8.02;;;;;;;;;;4996593;28;20033;-86
2021/12/25 14:54:45;;;;;;;15.98;8.20;;;;;;;;;;4978223;28;20033;-86
2021/12/25 14:57:40;;;;;;;12.32;8.13;;;;;;;;;;4979833;28;20026;-86
2021/12/25 15:00:07;;;;;;;17.80;8.95;;;;;;;;;;4977557;28;20073;-85
2021/12/25 15:02:33;;;;;;;12.23;9.05;;;;;;;;;;4998223;28;20090;-85
2021/12/25 15:04:59;;;;;;;13.23;8.75;;;;;;;;;;4996280;28;20038;-85
2021/12/25 15:07:25;;;;;;;11.80;7.55;;;;;;;;;;4977868;28;20501;-85
2021/12/25 15:09:53;;;;;;;11.48;7.65;;;;;;;;;;4978746;28;20403;-86
2021/12/25 15:12:23;;;;;;;12.57;8.43;;;;;;;;;;4999003;28;20026;-86
2021/12/25 15:15:03;;;;;;;13.75;7.70;;;;;;;;;;4999508;28;20057;-86
2021/12/25 15:17:30;;;;;;;13.20;8.00;;;;;;;;;;4998738;28;20106;-85
2021/12/25 15:19:58;;;;;;;15.07;9.13;;;;;;;;;;4999701;28;20074;-85
2021/12/25 15:22:24;;;;;;;16.40;9.52;;;;;;;;;;4999298;28;20022;-85
2021/12/25 15:24:55;;;;;;;16.55;10.07;;;;;;;;;;4999404;28;20034;-84
2021/12/25 15:27:24;;;;;;;14.15;8.80;;;;;;;;;;4996869;28;20026;-84
2021/12/25 15:29:51;;;;;;;13.23;7.32;;;;;;;;;;4977545;28;20505;-84
2021/12/25 15:32:17;;;;;;;11.57;7.18;;;;;;;;;;4977170;28;20038;-85
2021/12/25 15:34:57;;;;;;;13.07;7.68;;;;;;;;;;4994581;28;20030;-85
2021/12/25 15:37:26;;;;;;;15.00;7.95;;;;;;;;;;4995214;28;20030;-84
2021/12/25 15:39:53;;;;;;;13.93;8.75;;;;;;;;;;4996076;28;20022;-85
2021/12/25 15:42:19;;;;;;;14.68;8.85;;;;;;;;;;4994707;28;20019;-85
2021/12/25 15:44:46;;;;;;;14.00;8.63;;;;;;;;;;4994646;28;20477;-86
2021/12/25 15:47:12;;;;;;;13.90;8.60;;;;;;;;;;4994547;28;20038;-85
2021/12/25 15:49:38;;;;;;;17.02;9.63;;;;;;;;;;4977163;28;20026;-84
2021/12/25 15:52:04;;;;;;;18.83;9.85;;;;;;;;;;4994711;28;20022;-85
2021/12/25 15:54:31;;;;;;;19.83;11.02;;;;;;;;;;4995592;28;20223;-85
2021/12/25 15:56:58;;;;;;;19.10;11.15;;;;;;;;;;4978774;28;20507;-85
2021/12/25 15:59:26;;;;;;;18.70;10.32;;;;;;;;;;4994307;28;20033;-84
2021/12/25 16:01:52;;;;;;;19.52;12.25;;;;;;;;;;4994277;28;20081;-84
2021/12/25 16:04:18;;;;;;;17.40;10.02;;;;;;;;;;4995301;28;20089;-85
2021/12/25 16:06:44;;;;;;;20.60;10.05;;;;;;;;;;4996320;28;20031;-85
2021/12/25 16:09:10;;;;;;;15.02;9.27;;;;;;;;;;4976955;28;20120;-85
2021/12/25 16:11:37;;;;;;;15.98;8.32;;;;;;;;;;4978695;28;20030;-85
2021/12/25 16:14:03;;;;;;;11.63;8.50;;;;;;;;;;4978113;28;20574;-85
2021/12/25 16:16:29;;;;;;;14.98;9.20;;;;;;;;;;4984188;28;20053;-85
2021/12/25 16:18:55;;;;;;;13.23;8.75;;;;;;;;;;4976567;28;20081;-86
2021/12/25 16:21:22;;;;;;;14.55;8.52;;;;;;;;;;4997962;28;20034;-86
2021/12/25 16:23:49;;;;;;;11.93;8.07;;;;;;;;;;4999886;28;20022;-85
2021/12/25 16:26:15;;;;;;;14.38;8.32;;;;;;;;;;4998835;28;20030;-85
2021/12/25 16:28:42;;;;;;;12.90;8.00;;;;;;;;;;5013825;28;20031;-86
2021/12/25 16:31:08;;;;;;;13.52;7.32;;;;;;;;;;4997841;28;20034;-85
2021/12/25 16:33:47;;;;;;;10.52;7.25;;;;;;;;;;4999394;28;20073;-85